createdAt,value
2022-09-05T00:03:24.000Z,14.51
2022-09-05T00:11:41.981Z,14.59
2022-09-05T00:15:16.459Z,14.60
2022-09-05T00:24:19.829Z,14.65
2022-09-05T00:24:29.056Z,14.69
2022-09-05T00:29:07.274Z,14.72
2022-09-05T00:32:41.676Z,14.68
2022-09-05T00:39:47.730Z,14.61
2022-09-05T00:54:12.104Z,14.52
2022-09-05T00:58:01.919Z,14.48
2022-09-05T01:01:30.220Z,14.44
2022-09-05T01:05:07.697Z,14.40
2022-09-05T01:09:19.057Z,14.40
2022-09-05T01:13:02.648Z,14.39
2022-09-05T01:17:12.123Z,14.40
2022-09-05T01:21:22.370Z,14.39
2022-09-05T01:29:14.328Z,14.43
2022-09-05T01:32:24.318Z,14.49
2022-09-05T01:36:04.062Z,14.54
2022-09-05T01:48:27.325Z,14.59
2022-09-05T01:51:59.526Z,14.65
2022-09-05T01:56:21.762Z,14.67
2022-09-05T02:03:15.513Z,14.73
2022-09-05T02:07:31.030Z,14.69
2022-09-05T02:11:36.332Z,14.65
2022-09-05T02:14:57.701Z,14.63
2022-09-05T02:18:28.307Z,14.66
2022-09-05T02:22:02.572Z,14.66
2022-09-05T02:26:01.780Z,14.59
2022-09-05T02:30:35.300Z,14.51
2022-09-05T02:40:27.831Z,14.38
2022-09-05T02:45:08.247Z,14.31
2022-09-05T02:46:01.175Z,14.20
2022-09-05T02:53:59.189Z,14.11
2022-09-05T02:57:33.718Z,14.01
2022-09-05T02:58:12.856Z,13.92
2022-09-05T03:01:34.650Z,13.84
2022-09-05T03:05:08.610Z,13.77
2022-09-05T03:17:15.704Z,13.61
2022-09-05T03:21:15.635Z,13.57
2022-09-05T03:28:20.723Z,13.45
2022-09-05T03:32:28.583Z,13.45
2022-09-05T03:36:39.044Z,13.45
2022-09-05T03:41:06.020Z,13.50
2022-09-05T03:45:27.875Z,13.50
2022-09-05T03:58:55.425Z,13.51
2022-09-05T04:08:09.002Z,13.54
2022-09-05T04:08:17.042Z,13.57
2022-09-05T04:12:07.803Z,13.60
2022-09-05T04:25:00.971Z,13.70
2022-09-05T04:28:38.053Z,13.75
2022-09-05T04:32:18.770Z,13.75
2022-09-05T04:35:40.979Z,13.81
2022-09-05T04:39:08.793Z,13.79
2022-09-05T04:42:59.088Z,13.82
2022-09-05T04:46:34.328Z,13.87
2022-09-05T04:50:12.941Z,13.87
2022-09-05T04:53:43.075Z,13.94
2022-09-05T04:57:13.893Z,13.98
2022-09-05T05:06:01.714Z,14.03
2022-09-05T05:06:11.234Z,14.13
2022-09-05T05:07:19.228Z,14.21
2022-09-05T05:11:52.803Z,14.31
2022-09-05T05:18:06.722Z,14.43
2022-09-05T05:18:14.073Z,14.35
2022-09-05T05:20:42.384Z,14.49
2022-09-05T05:23:57.600Z,14.55
2022-09-05T05:27:13.761Z,14.60
2022-09-05T05:30:11.340Z,14.67
2022-09-05T05:33:00.801Z,14.83
2022-09-05T05:35:50.119Z,15.03
2022-09-05T05:38:54.301Z,15.26
2022-09-05T05:41:50.849Z,15.53
2022-09-05T05:44:39.500Z,15.71
2022-09-05T05:47:42.381Z,15.82
2022-09-05T05:51:39.682Z,15.95
2022-09-05T05:55:27.083Z,15.91
2022-09-05T05:58:40.100Z,15.89
2022-09-05T06:01:59.077Z,15.84
2022-09-05T06:05:28.680Z,15.76
2022-09-05T06:10:22.688Z,15.71
2022-09-05T06:15:01.327Z,15.72
2022-09-05T06:15:41.140Z,15.73
2022-09-05T06:19:01.941Z,15.81
2022-09-05T06:22:13.804Z,16.04
2022-09-05T06:25:46.321Z,16.12
2022-09-05T06:29:00.088Z,16.26
2022-09-05T06:32:34.159Z,16.36
2022-09-05T06:36:09.740Z,16.47
2022-09-05T06:39:04.560Z,16.58
2022-09-05T06:42:43.675Z,16.68
2022-09-05T06:46:15.719Z,16.94
2022-09-05T06:49:38.736Z,17.25
2022-09-05T06:53:19.779Z,17.31
2022-09-05T06:56:26.534Z,17.32
2022-09-05T06:59:46.980Z,17.55
2022-09-05T07:02:59.156Z,17.62
2022-09-05T07:06:09.302Z,17.78
2022-09-05T07:09:42.140Z,17.88
2022-09-05T07:12:51.360Z,17.96
2022-09-05T07:15:44.020Z,17.96
2022-09-05T07:18:46.181Z,18.14
2022-09-05T07:22:46.302Z,18.37
2022-09-05T07:25:37.302Z,18.71
2022-09-05T07:28:26.259Z,19.10
2022-09-05T07:31:26.518Z,19.31
2022-09-05T07:34:37.589Z,19.42
2022-09-05T07:37:34.641Z,19.43
2022-09-05T07:40:25.793Z,19.50
2022-09-05T07:43:39.819Z,19.72
2022-09-05T07:46:37.880Z,19.84
2022-09-05T07:49:31.129Z,19.65
2022-09-05T07:56:56.298Z,19.75
2022-09-05T07:57:00.913Z,20.00
2022-09-05T07:58:54.681Z,20.09
2022-09-05T08:01:49.580Z,19.97
2022-09-05T08:04:39.633Z,19.98
2022-09-05T08:10:06.741Z,20.05
2022-09-05T08:13:24.609Z,20.11
2022-09-05T08:16:20.085Z,19.94
2022-09-05T08:19:42.467Z,19.98
2022-09-05T08:22:52.222Z,20.14
2022-09-05T08:25:58.492Z,20.05
2022-09-05T08:29:18.677Z,19.97
2022-09-05T08:32:26.668Z,20.04
2022-09-05T08:35:40.432Z,20.12
2022-09-05T08:38:29.017Z,20.15
2022-09-05T08:41:50.272Z,20.13
2022-09-05T08:46:44.585Z,20.16
2022-09-05T08:49:24.355Z,20.28
2022-09-05T08:52:53.252Z,20.20
2022-09-05T08:56:06.790Z,20.19
2022-09-05T08:59:31.978Z,20.19
2022-09-05T09:02:48.149Z,20.22
2022-09-05T09:06:13.344Z,20.16
2022-09-05T09:09:32.497Z,20.25
2022-09-05T09:13:13.677Z,20.30
2022-09-05T09:16:17.328Z,20.42
2022-09-05T09:19:29.258Z,20.62
2022-09-05T09:22:28.080Z,20.57
2022-09-05T09:25:31.925Z,20.52
2022-09-05T09:28:49.514Z,20.58
2022-09-05T09:32:05.513Z,20.72
2022-09-05T09:35:06.095Z,20.69
2022-09-05T09:38:52.649Z,20.84
2022-09-05T09:42:14.960Z,20.88
2022-09-05T09:45:41.842Z,21.05
2022-09-05T09:49:05.537Z,21.18
2022-09-05T09:52:21.069Z,21.30
2022-09-05T09:55:41.416Z,21.25
2022-09-05T09:58:49.937Z,21.30
2022-09-05T10:01:51.001Z,21.58
2022-09-05T10:10:49.908Z,21.62
2022-09-05T10:11:08.155Z,21.98
2022-09-05T10:13:33.959Z,22.12
2022-09-05T10:17:06.128Z,22.04
2022-09-05T10:20:10.385Z,21.67
2022-09-05T10:23:34.022Z,21.50
2022-09-05T10:26:39.776Z,21.40
2022-09-05T10:29:58.537Z,21.33
2022-09-05T10:35:19.948Z,21.47
2022-09-05T10:37:00.026Z,21.78
2022-09-05T10:39:51.869Z,21.94
2022-09-05T10:43:00.249Z,22.07
2022-09-05T10:45:56.847Z,22.08
2022-09-05T10:49:13.938Z,22.00
2022-09-05T10:52:18.511Z,21.94
2022-09-05T10:55:28.838Z,21.95
2022-09-05T10:59:17.905Z,22.08
2022-09-05T11:02:29.253Z,22.13
2022-09-05T11:05:27.935Z,22.06
2022-09-05T11:08:30.567Z,21.96
2022-09-05T11:11:29.547Z,21.91
2022-09-05T11:14:52.816Z,21.96
2022-09-05T11:17:52.438Z,22.14
2022-09-05T11:21:00.130Z,22.20
2022-09-05T11:23:57.658Z,22.38
2022-09-05T11:27:24.316Z,22.61
2022-09-05T11:30:28.456Z,22.77
2022-09-05T11:36:44.334Z,22.62
2022-09-05T11:39:55.338Z,22.76
2022-09-05T11:40:53.556Z,22.55
2022-09-05T11:44:24.983Z,22.31
2022-09-05T11:47:45.087Z,22.12
2022-09-05T11:51:26.051Z,22.09
2022-09-05T11:55:21.093Z,22.18
2022-09-05T11:58:44.531Z,22.42
2022-09-05T12:01:44.415Z,22.45
2022-09-05T12:05:47.674Z,22.56
2022-09-05T12:08:52.993Z,22.99
2022-09-05T12:12:00.520Z,23.36
2022-09-05T12:15:27.156Z,23.28
2022-09-05T12:21:52.478Z,23.35
2022-09-05T12:25:25.060Z,23.42
2022-09-05T12:29:28.006Z,23.64
2022-09-05T12:33:21.991Z,23.70
2022-09-05T12:41:32.566Z,23.79
2022-09-05T12:41:41.300Z,23.29
2022-09-05T12:41:42.176Z,23.79
2022-09-05T12:42:25.634Z,23.70
2022-09-05T12:45:56.430Z,23.66
2022-09-05T12:49:07.362Z,23.70
2022-09-05T12:52:06.196Z,23.67
2022-09-05T12:55:03.714Z,23.58
2022-09-05T13:02:55.796Z,23.58
2022-09-05T13:03:05.819Z,23.48
2022-09-05T13:04:31.743Z,23.21
2022-09-05T13:07:48.708Z,23.30
2022-09-05T13:14:48.923Z,23.41
2022-09-05T13:14:55.455Z,23.61
2022-09-05T13:17:14.382Z,23.80
2022-09-05T13:20:00.985Z,23.92
2022-09-05T13:22:50.828Z,24.01
2022-09-05T13:25:42.477Z,23.95
2022-09-05T13:28:43.777Z,23.93
2022-09-05T13:38:02.657Z,23.64
2022-09-05T13:38:21.015Z,23.69
2022-09-05T13:38:47.559Z,23.64
2022-09-05T13:41:43.416Z,23.38
2022-09-05T13:44:36.550Z,23.23
2022-09-05T13:47:36.799Z,23.03
2022-09-05T13:50:53.209Z,22.77
2022-09-05T13:53:58.777Z,22.59
2022-09-05T13:57:21.590Z,22.40
2022-09-05T14:00:42.137Z,22.32
2022-09-05T14:03:55.989Z,22.35
2022-09-05T14:10:29.620Z,22.65
2022-09-05T14:13:41.809Z,22.55
2022-09-05T14:16:42.034Z,22.58
2022-09-05T14:20:05.797Z,22.67
2022-09-05T14:23:00.112Z,22.65
2022-09-05T14:26:14.915Z,22.60
2022-09-05T14:29:04.118Z,22.64
2022-09-05T14:37:34.272Z,22.69
2022-09-05T14:37:48.279Z,22.71
2022-09-05T14:39:14.055Z,22.82
2022-09-05T14:42:24.239Z,22.90
2022-09-05T14:45:27.281Z,23.09
2022-09-05T14:48:17.057Z,23.07
2022-09-05T14:51:25.734Z,23.12
2022-09-05T14:54:10.817Z,23.19
2022-09-05T14:58:28.398Z,23.10
2022-09-05T15:02:53.097Z,22.90
2022-09-05T15:03:02.187Z,22.63
2022-09-05T15:05:50.606Z,22.40
2022-09-05T15:11:24.446Z,22.22
2022-09-05T15:12:23.643Z,22.25
2022-09-05T15:14:17.967Z,22.39
2022-09-05T15:17:04.133Z,22.45
2022-09-05T15:20:05.718Z,22.35
2022-09-05T15:22:42.155Z,22.27
2022-09-05T15:25:22.027Z,22.26
2022-09-05T15:27:52.379Z,22.22
2022-09-05T15:30:35.130Z,22.17
2022-09-05T15:33:17.268Z,22.07
2022-09-05T15:35:46.277Z,21.95
2022-09-05T15:38:55.215Z,21.98
2022-09-05T15:41:29.976Z,22.05
2022-09-05T15:44:09.461Z,22.13
2022-09-05T15:46:53.726Z,22.19
2022-09-05T15:49:49.637Z,22.10
2022-09-05T15:52:18.038Z,22.04
2022-09-05T15:54:56.029Z,22.00
2022-09-05T15:57:36.819Z,21.93
2022-09-05T16:00:11.897Z,21.86
2022-09-05T16:02:50.109Z,21.78
2022-09-05T16:10:31.737Z,21.70
2022-09-05T16:10:41.915Z,21.59
2022-09-05T16:14:36.556Z,21.33
2022-09-05T16:23:12.081Z,21.23
2022-09-05T16:23:27.401Z,21.10
2022-09-05T16:23:40.515Z,20.99
2022-09-05T16:26:25.022Z,20.87
2022-09-05T16:29:15.119Z,20.78
2022-09-05T16:32:05.776Z,20.72
2022-09-05T16:34:55.298Z,20.64
2022-09-05T16:37:49.797Z,20.59
2022-09-05T16:40:26.556Z,20.54
2022-09-05T16:43:19.838Z,20.50
2022-09-05T16:46:05.866Z,20.42
2022-09-05T16:48:55.172Z,20.32
2022-09-05T16:51:36.383Z,20.23
2022-09-05T16:54:32.603Z,20.12
2022-09-05T16:57:07.068Z,20.02
2022-09-05T16:59:42.830Z,19.94
2022-09-05T17:02:37.009Z,19.87
2022-09-05T17:05:24.599Z,19.77
2022-09-05T17:08:03.229Z,19.70
2022-09-05T17:10:44.989Z,19.61
2022-09-05T17:13:43.781Z,19.53
2022-09-05T17:16:49.686Z,19.45
2022-09-05T17:19:25.339Z,19.35
2022-09-05T17:29:20.395Z,19.21
2022-09-05T17:29:24.590Z,18.94
2022-09-05T17:29:28.156Z,19.08
2022-09-05T17:32:02.548Z,18.78
2022-09-05T17:34:44.851Z,18.72
2022-09-05T17:37:25.519Z,18.58
2022-09-05T17:40:27.418Z,18.53
2022-09-05T17:43:39.070Z,18.43
2022-09-05T17:46:29.993Z,18.37
2022-09-05T17:52:17.857Z,18.23
2022-09-05T17:54:53.751Z,18.19
2022-09-05T17:57:28.762Z,18.16
2022-09-05T18:00:07.045Z,18.16
2022-09-05T18:02:57.699Z,18.11
2022-09-05T18:05:57.283Z,18.06
2022-09-05T18:08:52.810Z,17.96
2022-09-05T18:11:28.629Z,17.89
2022-09-05T18:14:25.873Z,17.82
2022-09-05T18:17:36.545Z,17.75
2022-09-05T18:19:57.633Z,17.70
2022-09-05T18:22:33.219Z,17.63
2022-09-05T18:25:27.288Z,17.55
2022-09-05T18:28:22.689Z,17.51
2022-09-05T18:30:52.214Z,17.44
2022-09-05T18:34:03.545Z,17.37
2022-09-05T18:36:25.887Z,17.32
2022-09-05T18:39:27.642Z,17.25
2022-09-05T18:42:33.359Z,17.18
2022-09-05T18:45:16.148Z,17.12
2022-09-05T18:47:59.192Z,17.02
2022-09-05T18:50:37.591Z,17.03
2022-09-05T18:53:13.283Z,17.00
2022-09-05T18:56:21.196Z,16.92
2022-09-05T18:59:09.425Z,16.85
2022-09-05T19:02:51.487Z,16.78
2022-09-05T19:05:33.221Z,16.70
2022-09-05T19:08:26.760Z,16.66
2022-09-05T19:11:27.410Z,16.64
2022-09-05T19:14:25.326Z,16.61
2022-09-05T19:17:07.477Z,16.57
2022-09-05T19:20:31.422Z,16.52
2022-09-05T19:23:11.209Z,16.47
2022-09-05T19:25:44.088Z,16.41
2022-09-05T19:32:43.100Z,16.39
2022-09-05T19:36:47.436Z,16.38
2022-09-05T19:37:23.968Z,16.35
2022-09-05T19:37:29.689Z,16.32
2022-09-05T19:42:00.330Z,16.27
2022-09-05T19:47:39.458Z,16.20
2022-09-05T19:47:47.077Z,16.15
2022-09-05T19:48:35.908Z,16.10
2022-09-05T19:51:18.675Z,16.07
2022-09-05T19:54:03.794Z,16.01
2022-09-05T19:56:45.389Z,15.94
2022-09-05T19:59:19.601Z,15.90
2022-09-05T20:01:48.901Z,15.89
2022-09-05T20:04:19.882Z,15.84
2022-09-05T20:06:50.829Z,15.80
2022-09-05T20:09:23.621Z,15.80
2022-09-05T20:12:04.021Z,15.76
2022-09-05T20:14:37.071Z,15.68
2022-09-05T20:17:29.639Z,15.63
2022-09-05T20:20:28.560Z,15.63
2022-09-05T20:23:07.810Z,15.55
2022-09-05T20:25:48.711Z,15.48
2022-09-05T20:28:24.902Z,15.42
2022-09-05T20:31:19.776Z,15.39
2022-09-05T20:34:04.139Z,15.34
2022-09-05T20:43:11.041Z,15.30
2022-09-05T20:43:17.745Z,15.29
2022-09-05T20:43:20.298Z,15.27
2022-09-05T20:48:31.809Z,15.23
2022-09-05T20:54:06.677Z,15.13
2022-09-05T20:54:28.650Z,15.10
2022-09-05T20:54:46.665Z,15.04
2022-09-05T20:57:28.915Z,15.00
2022-09-05T21:00:12.540Z,14.94
2022-09-05T21:02:59.224Z,14.91
2022-09-05T21:05:39.290Z,14.88
2022-09-05T21:08:37.773Z,14.86
2022-09-05T21:11:08.110Z,14.82
2022-09-05T21:13:52.479Z,14.76
2022-09-05T21:16:30.747Z,14.72
2022-09-05T21:19:00.002Z,14.72
2022-09-05T21:21:32.854Z,14.74
2022-09-05T21:24:18.139Z,14.68
2022-09-05T21:26:50.169Z,14.67
2022-09-05T21:29:33.258Z,14.69
2022-09-05T21:32:10.716Z,14.64
2022-09-05T21:34:52.001Z,14.62
2022-09-05T21:37:22.000Z,14.60
2022-09-05T21:39:59.776Z,14.55
2022-09-05T21:46:40.032Z,14.49
2022-09-05T21:47:34.599Z,14.46
2022-09-05T21:48:16.928Z,14.44
2022-09-05T21:50:54.661Z,14.41
2022-09-05T21:55:14.820Z,14.36
2022-09-05T21:59:16.680Z,14.31
2022-09-05T21:59:52.241Z,14.28
2022-09-05T22:03:00.238Z,14.26
2022-09-05T22:06:07.475Z,14.27
2022-09-05T22:09:14.337Z,14.27
2022-09-05T22:17:05.046Z,14.30
2022-09-05T22:20:09.030Z,14.30
2022-09-05T22:23:13.132Z,14.33
2022-09-05T22:26:21.105Z,14.34
2022-09-05T22:29:29.151Z,14.39
2022-09-05T22:32:35.521Z,14.41
2022-09-05T22:36:25.947Z,14.47
2022-09-05T22:40:18.896Z,14.57
2022-09-05T22:44:11.510Z,14.66
2022-09-05T22:50:01.184Z,14.80
2022-09-05T22:53:51.045Z,14.87
2022-09-05T22:57:53.716Z,14.95
2022-09-05T23:01:17.135Z,15.03
2022-09-05T23:05:13.454Z,15.08
2022-09-05T23:11:56.148Z,15.19
2022-09-05T23:15:17.104Z,15.22
2022-09-05T23:22:21.441Z,15.33
2022-09-05T23:25:34.562Z,15.38
2022-09-05T23:28:47.251Z,15.40
2022-09-05T23:32:13.766Z,15.40
2022-09-05T23:43:22.206Z,15.33
2022-09-05T23:47:17.796Z,15.28
2022-09-05T23:50:32.617Z,15.24
2022-09-05T23:54:30.545Z,15.20
2022-09-05T23:58:26.478Z,15.15
